sensor_id;sensor_type;location;lat;lon;timestamp;P1;durP1;ratioP1;P2;durP2;ratioP2
29120;SDS011;16191;49.548;8.658;2022-12-05T00:00:35;51.80;;;22.60;;
29120;SDS011;16191;49.548;8.658;2022-12-05T00:03:04;46.38;;;22.52;;
29120;SDS011;16191;49.548;8.658;2022-12-05T00:05:31;47.53;;;23.08;;
29120;SDS011;16191;49.548;8.658;2022-12-05T00:07:58;49.72;;;23.73;;
29120;SDS011;16191;49.548;8.658;2022-12-05T00:10:24;50.90;;;24.48;;
29120;SDS011;16191;49.548;8.658;2022-12-05T00:12:51;44.50;;;22.45;;
29120;SDS011;16191;49.548;8.658;2022-12-05T00:15:18;44.30;;;23.95;;
29120;SDS011;16191;49.548;8.658;2022-12-05T00:17:44;50.67;;;24.95;;
29120;SDS011;16191;49.548;8.658;2022-12-05T00:20:11;51.70;;;24.20;;
29120;SDS011;16191;49.548;8.658;2022-12-05T00:22:38;46.40;;;25.05;;
29120;SDS011;16191;49.548;8.658;2022-12-05T00:25:05;52.25;;;23.52;;
29120;SDS011;16191;49.548;8.658;2022-12-05T00:27:32;48.67;;;21.75;;
29120;SDS011;16191;49.548;8.658;2022-12-05T00:29:59;44.35;;;22.70;;
29120;SDS011;16191;49.548;8.658;2022-12-05T00:32:29;45.80;;;23.13;;
29120;SDS011;16191;49.548;8.658;2022-12-05T00:34:55;50.87;;;22.07;;
29120;SDS011;16191;49.548;8.658;2022-12-05T00:37:22;42.85;;;21.85;;
29120;SDS011;16191;49.548;8.658;2022-12-05T00:39:50;53.40;;;24.77;;
29120;SDS011;16191;49.548;8.658;2022-12-05T00:42:17;49.20;;;23.73;;
29120;SDS011;16191;49.548;8.658;2022-12-05T00:44:43;50.90;;;23.38;;
29120;SDS011;16191;49.548;8.658;2022-12-05T00:47:10;45.58;;;23.30;;
29120;SDS011;16191;49.548;8.658;2022-12-05T00:49:37;49.25;;;21.92;;
29120;SDS011;16191;49.548;8.658;2022-12-05T00:52:04;44.67;;;22.60;;
29120;SDS011;16191;49.548;8.658;2022-12-05T00:54:31;44.08;;;22.73;;
29120;SDS011;16191;49.548;8.658;2022-12-05T00:56:58;48.22;;;23.65;;
29120;SDS011;16191;49.548;8.658;2022-12-05T00:59:24;49.88;;;23.25;;
29120;SDS011;16191;49.548;8.658;2022-12-05T01:01:51;53.08;;;24.35;;
29120;SDS011;16191;49.548;8.658;2022-12-05T01:04:19;49.47;;;23.27;;
29120;SDS011;16191;49.548;8.658;2022-12-05T01:06:47;51.17;;;23.38;;
29120;SDS011;16191;49.548;8.658;2022-12-05T01:09:16;48.05;;;22.80;;
29120;SDS011;16191;49.548;8.658;2022-12-05T01:11:45;45.88;;;23.05;;
29120;SDS011;16191;49.548;8.658;2022-12-05T01:14:14;47.47;;;23.33;;
29120;SDS011;16191;49.548;8.658;2022-12-05T01:16:43;47.25;;;22.85;;
29120;SDS011;16191;49.548;8.658;2022-12-05T01:19:13;52.47;;;24.35;;
29120;SDS011;16191;49.548;8.658;2022-12-05T01:21:42;51.30;;;23.50;;
29120;SDS011;16191;49.548;8.658;2022-12-05T01:24:09;49.40;;;23.75;;
29120;SDS011;16191;49.548;8.658;2022-12-05T01:26:36;49.83;;;24.25;;
29120;SDS011;16191;49.548;8.658;2022-12-05T01:29:03;54.08;;;24.80;;
29120;SDS011;16191;49.548;8.658;2022-12-05T01:31:31;60.42;;;26.63;;
29120;SDS011;16191;49.548;8.658;2022-12-05T01:36:30;60.00;;;25.60;;
29120;SDS011;16191;49.548;8.658;2022-12-05T01:38:57;54.95;;;25.05;;
29120;SDS011;16191;49.548;8.658;2022-12-05T01:41:26;57.40;;;25.75;;
29120;SDS011;16191;49.548;8.658;2022-12-05T01:46:38;55.30;;;24.13;;
29120;SDS011;16191;49.548;8.658;2022-12-05T01:49:11;59.50;;;25.20;;
29120;SDS011;16191;49.548;8.658;2022-12-05T01:51:45;59.28;;;26.05;;
29120;SDS011;16191;49.548;8.658;2022-12-05T01:54:16;63.05;;;25.42;;
29120;SDS011;16191;49.548;8.658;2022-12-05T01:56:46;61.95;;;25.45;;
29120;SDS011;16191;49.548;8.658;2022-12-05T01:59:17;54.85;;;24.33;;
29120;SDS011;16191;49.548;8.658;2022-12-05T02:01:47;58.40;;;26.10;;
29120;SDS011;16191;49.548;8.658;2022-12-05T02:04:14;60.38;;;25.63;;
29120;SDS011;16191;49.548;8.658;2022-12-05T02:06:41;65.30;;;27.08;;
29120;SDS011;16191;49.548;8.658;2022-12-05T02:09:07;55.95;;;25.60;;
29120;SDS011;16191;49.548;8.658;2022-12-05T02:11:34;54.47;;;26.27;;
29120;SDS011;16191;49.548;8.658;2022-12-05T02:15:13;59.92;;;27.33;;
29120;SDS011;16191;49.548;8.658;2022-12-05T02:17:28;65.22;;;26.85;;
29120;SDS011;16191;49.548;8.658;2022-12-05T02:31:26;70.50;;;29.38;;
29120;SDS011;16191;49.548;8.658;2022-12-05T02:36:48;78.40;;;30.30;;
29120;SDS011;16191;49.548;8.658;2022-12-05T02:39:34;95.15;;;32.03;;
29120;SDS011;16191;49.548;8.658;2022-12-05T02:42:12;72.40;;;28.40;;
29120;SDS011;16191;49.548;8.658;2022-12-05T02:44:47;80.97;;;29.90;;
29120;SDS011;16191;49.548;8.658;2022-12-05T02:47:20;66.90;;;29.25;;
29120;SDS011;16191;49.548;8.658;2022-12-05T02:49:51;76.07;;;29.50;;
29120;SDS011;16191;49.548;8.658;2022-12-05T02:52:19;70.68;;;28.30;;
29120;SDS011;16191;49.548;8.658;2022-12-05T02:54:48;69.20;;;28.33;;
29120;SDS011;16191;49.548;8.658;2022-12-05T02:57:17;79.68;;;30.50;;
29120;SDS011;16191;49.548;8.658;2022-12-05T02:59:45;71.10;;;28.98;;
29120;SDS011;16191;49.548;8.658;2022-12-05T03:02:26;82.18;;;29.45;;
29120;SDS011;16191;49.548;8.658;2022-12-05T03:05:03;85.32;;;31.08;;
29120;SDS011;16191;49.548;8.658;2022-12-05T03:07:45;88.43;;;30.95;;
29120;SDS011;16191;49.548;8.658;2022-12-05T03:10:18;78.47;;;29.80;;
29120;SDS011;16191;49.548;8.658;2022-12-05T03:12:50;75.95;;;29.50;;
29120;SDS011;16191;49.548;8.658;2022-12-05T03:15:28;83.53;;;32.78;;
29120;SDS011;16191;49.548;8.658;2022-12-05T03:18:12;86.68;;;31.05;;
29120;SDS011;16191;49.548;8.658;2022-12-05T03:20:47;77.00;;;30.65;;
29120;SDS011;16191;49.548;8.658;2022-12-05T03:23:20;101.55;;;30.45;;
29120;SDS011;16191;49.548;8.658;2022-12-05T03:28:47;81.75;;;31.20;;
29120;SDS011;16191;49.548;8.658;2022-12-05T03:31:16;84.72;;;31.55;;
29120;SDS011;16191;49.548;8.658;2022-12-05T03:33:48;81.68;;;32.28;;
29120;SDS011;16191;49.548;8.658;2022-12-05T03:36:22;73.25;;;30.88;;
29120;SDS011;16191;49.548;8.658;2022-12-05T03:39:11;77.20;;;29.35;;
29120;SDS011;16191;49.548;8.658;2022-12-05T03:42:08;81.63;;;31.42;;
29120;SDS011;16191;49.548;8.658;2022-12-05T03:44:43;91.45;;;33.78;;
29120;SDS011;16191;49.548;8.658;2022-12-05T03:47:26;94.95;;;33.58;;
29120;SDS011;16191;49.548;8.658;2022-12-05T03:50:02;83.78;;;31.67;;
29120;SDS011;16191;49.548;8.658;2022-12-05T03:52:38;87.03;;;32.17;;
29120;SDS011;16191;49.548;8.658;2022-12-05T03:55:34;86.88;;;34.25;;
29120;SDS011;16191;49.548;8.658;2022-12-05T03:58:11;83.00;;;31.92;;
29120;SDS011;16191;49.548;8.658;2022-12-05T04:00:44;92.45;;;33.65;;
29120;SDS011;16191;49.548;8.658;2022-12-05T04:03:16;88.10;;;33.00;;
29120;SDS011;16191;49.548;8.658;2022-12-05T04:05:50;73.90;;;28.77;;
29120;SDS011;16191;49.548;8.658;2022-12-05T04:11:18;69.38;;;25.05;;
29120;SDS011;16191;49.548;8.658;2022-12-05T04:13:48;67.70;;;25.33;;
29120;SDS011;16191;49.548;8.658;2022-12-05T04:16:19;72.03;;;25.45;;
29120;SDS011;16191;49.548;8.658;2022-12-05T04:22:31;56.83;;;23.10;;
29120;SDS011;16191;49.548;8.658;2022-12-05T04:25:00;57.53;;;23.25;;
29120;SDS011;16191;49.548;8.658;2022-12-05T04:27:49;61.78;;;25.08;;
29120;SDS011;16191;49.548;8.658;2022-12-05T04:31:15;69.20;;;24.83;;
29120;SDS011;16191;49.548;8.658;2022-12-05T04:38:46;64.18;;;23.80;;
29120;SDS011;16191;49.548;8.658;2022-12-05T04:41:19;71.13;;;26.58;;
29120;SDS011;16191;49.548;8.658;2022-12-05T04:43:50;62.00;;;24.95;;
29120;SDS011;16191;49.548;8.658;2022-12-05T04:46:19;60.28;;;24.65;;
29120;SDS011;16191;49.548;8.658;2022-12-05T04:48:49;68.75;;;26.63;;
29120;SDS011;16191;49.548;8.658;2022-12-05T04:51:21;60.67;;;24.70;;
29120;SDS011;16191;49.548;8.658;2022-12-05T04:53:52;64.07;;;25.88;;
29120;SDS011;16191;49.548;8.658;2022-12-05T04:56:23;66.43;;;25.65;;
29120;SDS011;16191;49.548;8.658;2022-12-05T04:58:55;67.03;;;25.45;;
29120;SDS011;16191;49.548;8.658;2022-12-05T05:01:24;63.80;;;24.67;;
29120;SDS011;16191;49.548;8.658;2022-12-05T05:03:58;53.38;;;23.92;;
29120;SDS011;16191;49.548;8.658;2022-12-05T05:06:32;57.72;;;24.17;;
29120;SDS011;16191;49.548;8.658;2022-12-05T05:08:59;57.85;;;23.17;;
29120;SDS011;16191;49.548;8.658;2022-12-05T05:11:26;58.80;;;23.40;;
29120;SDS011;16191;49.548;8.658;2022-12-05T05:13:55;53.83;;;22.98;;
29120;SDS011;16191;49.548;8.658;2022-12-05T05:16:23;55.35;;;23.30;;
29120;SDS011;16191;49.548;8.658;2022-12-05T05:18:51;54.08;;;23.63;;
29120;SDS011;16191;49.548;8.658;2022-12-05T05:21:29;54.22;;;23.27;;
29120;SDS011;16191;49.548;8.658;2022-12-05T05:23:58;53.70;;;23.17;;
29120;SDS011;16191;49.548;8.658;2022-12-05T05:26:26;59.08;;;24.88;;
29120;SDS011;16191;49.548;8.658;2022-12-05T05:28:54;57.55;;;24.38;;
29120;SDS011;16191;49.548;8.658;2022-12-05T05:31:22;61.72;;;23.80;;
29120;SDS011;16191;49.548;8.658;2022-12-05T05:33:50;54.50;;;23.67;;
29120;SDS011;16191;49.548;8.658;2022-12-05T05:36:18;57.60;;;22.42;;
29120;SDS011;16191;49.548;8.658;2022-12-05T05:38:47;51.75;;;21.05;;
29120;SDS011;16191;49.548;8.658;2022-12-05T05:41:20;47.25;;;21.38;;
29120;SDS011;16191;49.548;8.658;2022-12-05T05:43:48;43.45;;;19.02;;
29120;SDS011;16191;49.548;8.658;2022-12-05T05:46:17;38.50;;;17.70;;
29120;SDS011;16191;49.548;8.658;2022-12-05T05:48:45;40.95;;;19.10;;
29120;SDS011;16191;49.548;8.658;2022-12-05T05:51:12;35.47;;;17.13;;
29120;SDS011;16191;49.548;8.658;2022-12-05T05:53:41;37.25;;;17.77;;
29120;SDS011;16191;49.548;8.658;2022-12-05T05:56:08;35.13;;;17.45;;
29120;SDS011;16191;49.548;8.658;2022-12-05T05:58:42;36.35;;;17.13;;
29120;SDS011;16191;49.548;8.658;2022-12-05T06:01:14;33.30;;;16.52;;
29120;SDS011;16191;49.548;8.658;2022-12-05T06:03:42;30.50;;;15.82;;
29120;SDS011;16191;49.548;8.658;2022-12-05T06:06:11;32.08;;;15.82;;
29120;SDS011;16191;49.548;8.658;2022-12-05T06:08:39;34.08;;;17.25;;
29120;SDS011;16191;49.548;8.658;2022-12-05T06:11:12;32.42;;;16.30;;
29120;SDS011;16191;49.548;8.658;2022-12-05T06:13:48;33.45;;;17.55;;
29120;SDS011;16191;49.548;8.658;2022-12-05T06:16:16;35.03;;;17.98;;
29120;SDS011;16191;49.548;8.658;2022-12-05T06:18:44;33.05;;;16.73;;
29120;SDS011;16191;49.548;8.658;2022-12-05T06:21:10;33.22;;;16.98;;
29120;SDS011;16191;49.548;8.658;2022-12-05T06:23:41;34.63;;;18.08;;
29120;SDS011;16191;49.548;8.658;2022-12-05T06:26:09;40.65;;;19.30;;
29120;SDS011;16191;49.548;8.658;2022-12-05T06:28:38;39.58;;;18.98;;
29120;SDS011;16191;49.548;8.658;2022-12-05T06:31:09;39.15;;;18.05;;
29120;SDS011;16191;49.548;8.658;2022-12-05T06:33:37;36.42;;;18.85;;
29120;SDS011;16191;49.548;8.658;2022-12-05T06:36:05;41.38;;;19.30;;
29120;SDS011;16191;49.548;8.658;2022-12-05T06:38:34;41.60;;;20.27;;
29120;SDS011;16191;49.548;8.658;2022-12-05T06:41:08;40.17;;;20.13;;
29120;SDS011;16191;49.548;8.658;2022-12-05T06:43:39;36.30;;;17.75;;
29120;SDS011;16191;49.548;8.658;2022-12-05T06:46:06;43.45;;;20.17;;
29120;SDS011;16191;49.548;8.658;2022-12-05T06:48:34;41.30;;;18.33;;
29120;SDS011;16191;49.548;8.658;2022-12-05T06:51:01;38.70;;;19.20;;
29120;SDS011;16191;49.548;8.658;2022-12-05T06:53:28;39.13;;;17.48;;
29120;SDS011;16191;49.548;8.658;2022-12-05T06:55:55;41.72;;;18.92;;
29120;SDS011;16191;49.548;8.658;2022-12-05T06:58:23;43.00;;;19.67;;
29120;SDS011;16191;49.548;8.658;2022-12-05T07:00:50;46.05;;;20.33;;
29120;SDS011;16191;49.548;8.658;2022-12-05T07:03:36;41.38;;;19.88;;
29120;SDS011;16191;49.548;8.658;2022-12-05T07:06:03;49.40;;;21.95;;
29120;SDS011;16191;49.548;8.658;2022-12-05T07:08:31;47.30;;;21.05;;
29120;SDS011;16191;49.548;8.658;2022-12-05T07:10:58;45.28;;;20.63;;
29120;SDS011;16191;49.548;8.658;2022-12-05T07:13:24;49.10;;;21.92;;
29120;SDS011;16191;49.548;8.658;2022-12-05T07:15:51;51.88;;;22.88;;
29120;SDS011;16191;49.548;8.658;2022-12-05T07:18:18;54.13;;;22.00;;
29120;SDS011;16191;49.548;8.658;2022-12-05T07:20:54;53.42;;;22.92;;
29120;SDS011;16191;49.548;8.658;2022-12-05T07:23:41;46.20;;;21.30;;
29120;SDS011;16191;49.548;8.658;2022-12-05T07:26:17;45.90;;;20.23;;
29120;SDS011;16191;49.548;8.658;2022-12-05T07:28:46;43.03;;;20.10;;
29120;SDS011;16191;49.548;8.658;2022-12-05T07:31:15;52.80;;;23.45;;
29120;SDS011;16191;49.548;8.658;2022-12-05T07:33:43;46.60;;;22.05;;
29120;SDS011;16191;49.548;8.658;2022-12-05T07:36:14;53.28;;;22.55;;
29120;SDS011;16191;49.548;8.658;2022-12-05T07:38:43;47.72;;;20.40;;
29120;SDS011;16191;49.548;8.658;2022-12-05T07:41:20;48.83;;;22.30;;
29120;SDS011;16191;49.548;8.658;2022-12-05T07:43:52;50.90;;;21.45;;
29120;SDS011;16191;49.548;8.658;2022-12-05T07:46:21;42.90;;;20.95;;
29120;SDS011;16191;49.548;8.658;2022-12-05T07:48:49;56.55;;;22.40;;
29120;SDS011;16191;49.548;8.658;2022-12-05T07:51:16;46.67;;;22.02;;
29120;SDS011;16191;49.548;8.658;2022-12-05T07:53:44;47.60;;;21.65;;
29120;SDS011;16191;49.548;8.658;2022-12-05T07:56:13;41.00;;;20.25;;
29120;SDS011;16191;49.548;8.658;2022-12-05T07:58:43;43.75;;;20.63;;
29120;SDS011;16191;49.548;8.658;2022-12-05T08:01:15;41.28;;;19.92;;
29120;SDS011;16191;49.548;8.658;2022-12-05T08:03:44;44.13;;;20.55;;
29120;SDS011;16191;49.548;8.658;2022-12-05T08:06:12;43.30;;;20.77;;
29120;SDS011;16191;49.548;8.658;2022-12-05T08:08:40;41.30;;;20.05;;
29120;SDS011;16191;49.548;8.658;2022-12-05T08:11:08;43.28;;;21.10;;
29120;SDS011;16191;49.548;8.658;2022-12-05T08:13:37;41.00;;;19.83;;
29120;SDS011;16191;49.548;8.658;2022-12-05T08:16:05;44.58;;;19.10;;
29120;SDS011;16191;49.548;8.658;2022-12-05T08:18:33;40.38;;;20.95;;
29120;SDS011;16191;49.548;8.658;2022-12-05T08:21:04;42.03;;;20.13;;
29120;SDS011;16191;49.548;8.658;2022-12-05T08:23:32;43.45;;;20.33;;
29120;SDS011;16191;49.548;8.658;2022-12-05T08:26:18;40.38;;;20.92;;
29120;SDS011;16191;49.548;8.658;2022-12-05T08:28:50;43.47;;;20.55;;
29120;SDS011;16191;49.548;8.658;2022-12-05T08:31:19;39.88;;;20.65;;
29120;SDS011;16191;49.548;8.658;2022-12-05T08:36:24;45.03;;;20.23;;
29120;SDS011;16191;49.548;8.658;2022-12-05T08:38:54;41.92;;;21.63;;
29120;SDS011;16191;49.548;8.658;2022-12-05T08:41:25;37.28;;;19.70;;
29120;SDS011;16191;49.548;8.658;2022-12-05T08:43:58;48.35;;;21.65;;
29120;SDS011;16191;49.548;8.658;2022-12-05T08:46:29;40.03;;;19.98;;
29120;SDS011;16191;49.548;8.658;2022-12-05T08:48:56;42.83;;;21.77;;
29120;SDS011;16191;49.548;8.658;2022-12-05T08:51:22;49.85;;;23.27;;
29120;SDS011;16191;49.548;8.658;2022-12-05T08:53:49;42.47;;;21.55;;
29120;SDS011;16191;49.548;8.658;2022-12-05T08:56:16;42.60;;;21.52;;
29120;SDS011;16191;49.548;8.658;2022-12-05T08:58:51;39.88;;;20.17;;
29120;SDS011;16191;49.548;8.658;2022-12-05T09:01:19;44.83;;;21.08;;
29120;SDS011;16191;49.548;8.658;2022-12-05T09:03:47;43.30;;;20.50;;
29120;SDS011;16191;49.548;8.658;2022-12-05T09:06:21;47.13;;;22.02;;
29120;SDS011;16191;49.548;8.658;2022-12-05T09:08:52;48.38;;;21.25;;
29120;SDS011;16191;49.548;8.658;2022-12-05T09:11:21;38.65;;;19.23;;
29120;SDS011;16191;49.548;8.658;2022-12-05T09:13:50;45.15;;;20.50;;
29120;SDS011;16191;49.548;8.658;2022-12-05T09:16:29;44.50;;;20.83;;
29120;SDS011;16191;49.548;8.658;2022-12-05T09:19:05;41.28;;;21.45;;
29120;SDS011;16191;49.548;8.658;2022-12-05T09:21:43;42.65;;;21.05;;
29120;SDS011;16191;49.548;8.658;2022-12-05T09:24:10;42.53;;;19.92;;
29120;SDS011;16191;49.548;8.658;2022-12-05T09:26:37;46.65;;;21.15;;
29120;SDS011;16191;49.548;8.658;2022-12-05T09:29:05;38.17;;;20.20;;
29120;SDS011;16191;49.548;8.658;2022-12-05T09:31:40;45.00;;;21.58;;
29120;SDS011;16191;49.548;8.658;2022-12-05T09:34:08;38.20;;;19.48;;
29120;SDS011;16191;49.548;8.658;2022-12-05T09:36:35;40.30;;;19.85;;
29120;SDS011;16191;49.548;8.658;2022-12-05T09:39:03;34.63;;;18.95;;
29120;SDS011;16191;49.548;8.658;2022-12-05T09:47:07;33.75;;;19.23;;
29120;SDS011;16191;49.548;8.658;2022-12-05T09:55:19;36.08;;;18.73;;
29120;SDS011;16191;49.548;8.658;2022-12-05T09:57:55;37.83;;;19.48;;
29120;SDS011;16191;49.548;8.658;2022-12-05T10:00:25;33.22;;;18.95;;
29120;SDS011;16191;49.548;8.658;2022-12-05T10:03:01;33.53;;;19.38;;
29120;SDS011;16191;49.548;8.658;2022-12-05T10:06:27;32.00;;;17.65;;
29120;SDS011;16191;49.548;8.658;2022-12-05T10:11:42;38.17;;;19.10;;
29120;SDS011;16191;49.548;8.658;2022-12-05T10:17:10;33.88;;;18.40;;
29120;SDS011;16191;49.548;8.658;2022-12-05T10:19:45;36.05;;;19.67;;
29120;SDS011;16191;49.548;8.658;2022-12-05T10:22:15;37.85;;;20.05;;
29120;SDS011;16191;49.548;8.658;2022-12-05T10:24:47;32.10;;;17.95;;
29120;SDS011;16191;49.548;8.658;2022-12-05T10:27:18;32.40;;;17.60;;
29120;SDS011;16191;49.548;8.658;2022-12-05T10:29:53;34.97;;;19.05;;
29120;SDS011;16191;49.548;8.658;2022-12-05T10:32:35;35.65;;;17.52;;
29120;SDS011;16191;49.548;8.658;2022-12-05T10:35:18;33.65;;;18.98;;
29120;SDS011;16191;49.548;8.658;2022-12-05T10:37:56;33.13;;;18.05;;
29120;SDS011;16191;49.548;8.658;2022-12-05T10:40:26;32.15;;;17.83;;
29120;SDS011;16191;49.548;8.658;2022-12-05T10:43:00;33.20;;;17.65;;
29120;SDS011;16191;49.548;8.658;2022-12-05T10:45:26;35.95;;;19.02;;
29120;SDS011;16191;49.548;8.658;2022-12-05T10:47:54;31.52;;;16.92;;
29120;SDS011;16191;49.548;8.658;2022-12-05T10:50:24;35.80;;;18.70;;
29120;SDS011;16191;49.548;8.658;2022-12-05T10:52:59;31.27;;;17.00;;
29120;SDS011;16191;49.548;8.658;2022-12-05T10:55:29;40.00;;;20.15;;
29120;SDS011;16191;49.548;8.658;2022-12-05T10:58:25;32.13;;;18.42;;
29120;SDS011;16191;49.548;8.658;2022-12-05T11:00:54;34.28;;;17.52;;
29120;SDS011;16191;49.548;8.658;2022-12-05T11:05:51;34.60;;;18.08;;
29120;SDS011;16191;49.548;8.658;2022-12-05T11:08:20;36.70;;;19.00;;
29120;SDS011;16191;49.548;8.658;2022-12-05T11:16:55;29.23;;;15.65;;
29120;SDS011;16191;49.548;8.658;2022-12-05T11:19:27;27.52;;;16.17;;
29120;SDS011;16191;49.548;8.658;2022-12-05T11:21:54;30.38;;;17.10;;
29120;SDS011;16191;49.548;8.658;2022-12-05T11:26:51;31.48;;;18.17;;
29120;SDS011;16191;49.548;8.658;2022-12-05T11:32:24;34.20;;;17.55;;
29120;SDS011;16191;49.548;8.658;2022-12-05T11:40:23;31.70;;;17.20;;
29120;SDS011;16191;49.548;8.658;2022-12-05T11:45:48;29.63;;;17.45;;
29120;SDS011;16191;49.548;8.658;2022-12-05T11:51:28;33.28;;;18.50;;
29120;SDS011;16191;49.548;8.658;2022-12-05T11:54:13;33.72;;;17.40;;
29120;SDS011;16191;49.548;8.658;2022-12-05T12:13:42;35.90;;;18.90;;
29120;SDS011;16191;49.548;8.658;2022-12-05T12:16:22;33.22;;;18.00;;
29120;SDS011;16191;49.548;8.658;2022-12-05T12:30:30;30.17;;;17.20;;
29120;SDS011;16191;49.548;8.658;2022-12-05T12:32:46;31.45;;;17.10;;
29120;SDS011;16191;49.548;8.658;2022-12-05T12:35:26;35.22;;;18.27;;
29120;SDS011;16191;49.548;8.658;2022-12-05T12:38:03;33.97;;;18.17;;
29120;SDS011;16191;49.548;8.658;2022-12-05T12:40:36;31.35;;;17.50;;
29120;SDS011;16191;49.548;8.658;2022-12-05T12:43:21;32.17;;;17.63;;
29120;SDS011;16191;49.548;8.658;2022-12-05T12:46:26;29.33;;;15.80;;
29120;SDS011;16191;49.548;8.658;2022-12-05T12:52:23;32.08;;;15.55;;
29120;SDS011;16191;49.548;8.658;2022-12-05T12:55:02;33.97;;;17.20;;
29120;SDS011;16191;49.548;8.658;2022-12-05T12:57:51;30.80;;;17.80;;
29120;SDS011;16191;49.548;8.658;2022-12-05T13:03:53;28.00;;;16.90;;
29120;SDS011;16191;49.548;8.658;2022-12-05T13:06:33;30.95;;;17.65;;
29120;SDS011;16191;49.548;8.658;2022-12-05T13:09:07;31.83;;;18.15;;
29120;SDS011;16191;49.548;8.658;2022-12-05T13:11:38;28.60;;;16.30;;
29120;SDS011;16191;49.548;8.658;2022-12-05T13:14:12;27.90;;;16.83;;
29120;SDS011;16191;49.548;8.658;2022-12-05T13:16:43;29.52;;;16.50;;
29120;SDS011;16191;49.548;8.658;2022-12-05T13:22:05;30.65;;;17.08;;
29120;SDS011;16191;49.548;8.658;2022-12-05T13:24:32;34.45;;;18.45;;
29120;SDS011;16191;49.548;8.658;2022-12-05T13:27:07;28.25;;;17.02;;
29120;SDS011;16191;49.548;8.658;2022-12-05T13:29:41;30.08;;;17.33;;
29120;SDS011;16191;49.548;8.658;2022-12-05T13:32:27;33.88;;;17.42;;
29120;SDS011;16191;49.548;8.658;2022-12-05T13:35:00;31.55;;;16.85;;
29120;SDS011;16191;49.548;8.658;2022-12-05T13:37:43;29.08;;;16.55;;
29120;SDS011;16191;49.548;8.658;2022-12-05T13:40:31;30.00;;;17.33;;
29120;SDS011;16191;49.548;8.658;2022-12-05T13:43:23;32.38;;;18.10;;
29120;SDS011;16191;49.548;8.658;2022-12-05T13:46:04;29.13;;;16.25;;
29120;SDS011;16191;49.548;8.658;2022-12-05T13:48:36;29.83;;;16.52;;
29120;SDS011;16191;49.548;8.658;2022-12-05T13:51:26;26.73;;;16.13;;
29120;SDS011;16191;49.548;8.658;2022-12-05T13:53:59;26.55;;;15.38;;
29120;SDS011;16191;49.548;8.658;2022-12-05T13:59:55;28.35;;;16.33;;
29120;SDS011;16191;49.548;8.658;2022-12-05T14:07:51;25.08;;;14.98;;
29120;SDS011;16191;49.548;8.658;2022-12-05T14:15:43;25.33;;;14.05;;
29120;SDS011;16191;49.548;8.658;2022-12-05T14:18:20;22.55;;;13.40;;
29120;SDS011;16191;49.548;8.658;2022-12-05T14:27:26;30.20;;;14.95;;
29120;SDS011;16191;49.548;8.658;2022-12-05T14:32:39;25.48;;;14.88;;
29120;SDS011;16191;49.548;8.658;2022-12-05T14:37:52;25.67;;;14.43;;
29120;SDS011;16191;49.548;8.658;2022-12-05T14:48:23;23.52;;;13.82;;
29120;SDS011;16191;49.548;8.658;2022-12-05T14:50:53;22.48;;;12.32;;
29120;SDS011;16191;49.548;8.658;2022-12-05T14:53:28;20.52;;;12.57;;
29120;SDS011;16191;49.548;8.658;2022-12-05T14:58:47;21.05;;;11.32;;
29120;SDS011;16191;49.548;8.658;2022-12-05T15:04:08;21.92;;;11.23;;
29120;SDS011;16191;49.548;8.658;2022-12-05T15:06:55;21.13;;;10.68;;
29120;SDS011;16191;49.548;8.658;2022-12-05T15:12:21;17.42;;;9.85;;
29120;SDS011;16191;49.548;8.658;2022-12-05T15:17:37;15.77;;;8.57;;
29120;SDS011;16191;49.548;8.658;2022-12-05T15:20:21;14.70;;;8.50;;
29120;SDS011;16191;49.548;8.658;2022-12-05T15:23:36;14.98;;;7.82;;
29120;SDS011;16191;49.548;8.658;2022-12-05T15:26:15;12.57;;;8.00;;
29120;SDS011;16191;49.548;8.658;2022-12-05T15:29:06;12.30;;;6.88;;
29120;SDS011;16191;49.548;8.658;2022-12-05T15:31:37;10.98;;;6.53;;
29120;SDS011;16191;49.548;8.658;2022-12-05T15:34:29;11.38;;;7.35;;
29120;SDS011;16191;49.548;8.658;2022-12-05T15:39:57;11.23;;;6.00;;
29120;SDS011;16191;49.548;8.658;2022-12-05T15:42:30;11.18;;;6.22;;
29120;SDS011;16191;49.548;8.658;2022-12-05T15:47:41;6.70;;;4.80;;
29120;SDS011;16191;49.548;8.658;2022-12-05T15:52:41;4.68;;;3.22;;
29120;SDS011;16191;49.548;8.658;2022-12-05T15:55:30;9.25;;;3.58;;
29120;SDS011;16191;49.548;8.658;2022-12-05T16:00:46;4.93;;;3.05;;
29120;SDS011;16191;49.548;8.658;2022-12-05T16:03:17;5.60;;;3.40;;
29120;SDS011;16191;49.548;8.658;2022-12-05T16:05:51;5.40;;;3.33;;
29120;SDS011;16191;49.548;8.658;2022-12-05T16:08:21;5.72;;;3.22;;
29120;SDS011;16191;49.548;8.658;2022-12-05T16:10:50;6.10;;;3.15;;
29120;SDS011;16191;49.548;8.658;2022-12-05T16:13:18;6.55;;;4.07;;
29120;SDS011;16191;49.548;8.658;2022-12-05T16:15:49;5.93;;;3.80;;
29120;SDS011;16191;49.548;8.658;2022-12-05T16:18:26;7.35;;;4.00;;
29120;SDS011;16191;49.548;8.658;2022-12-05T16:20:55;8.35;;;4.47;;
29120;SDS011;16191;49.548;8.658;2022-12-05T16:23:27;10.35;;;4.93;;
29120;SDS011;16191;49.548;8.658;2022-12-05T16:28:38;6.80;;;4.35;;
29120;SDS011;16191;49.548;8.658;2022-12-05T16:31:05;6.40;;;4.15;;
29120;SDS011;16191;49.548;8.658;2022-12-05T16:33:32;8.70;;;4.97;;
29120;SDS011;16191;49.548;8.658;2022-12-05T16:36:06;8.88;;;4.78;;
29120;SDS011;16191;49.548;8.658;2022-12-05T16:38:33;7.10;;;4.60;;
29120;SDS011;16191;49.548;8.658;2022-12-05T16:41:02;7.18;;;4.68;;
29120;SDS011;16191;49.548;8.658;2022-12-05T16:45:59;7.72;;;4.55;;
29120;SDS011;16191;49.548;8.658;2022-12-05T16:54:34;8.88;;;5.00;;
29120;SDS011;16191;49.548;8.658;2022-12-05T16:57:01;7.63;;;4.63;;
29120;SDS011;16191;49.548;8.658;2022-12-05T16:59:33;8.55;;;5.75;;
29120;SDS011;16191;49.548;8.658;2022-12-05T17:02:03;9.75;;;6.20;;
29120;SDS011;16191;49.548;8.658;2022-12-05T17:06:59;9.65;;;6.00;;
29120;SDS011;16191;49.548;8.658;2022-12-05T17:09:26;12.05;;;7.50;;
29120;SDS011;16191;49.548;8.658;2022-12-05T17:11:53;10.88;;;6.43;;
29120;SDS011;16191;49.548;8.658;2022-12-05T17:14:28;9.23;;;5.80;;
29120;SDS011;16191;49.548;8.658;2022-12-05T17:16:54;12.95;;;7.03;;
29120;SDS011;16191;49.548;8.658;2022-12-05T17:19:21;12.80;;;5.65;;
29120;SDS011;16191;49.548;8.658;2022-12-05T17:21:48;7.97;;;5.47;;
29120;SDS011;16191;49.548;8.658;2022-12-05T17:24:16;8.82;;;5.70;;
29120;SDS011;16191;49.548;8.658;2022-12-05T17:26:43;8.52;;;5.50;;
29120;SDS011;16191;49.548;8.658;2022-12-05T17:29:11;7.43;;;4.97;;
29120;SDS011;16191;49.548;8.658;2022-12-05T17:31:38;7.07;;;4.60;;
29120;SDS011;16191;49.548;8.658;2022-12-05T17:34:09;9.35;;;5.50;;
29120;SDS011;16191;49.548;8.658;2022-12-05T17:36:41;7.38;;;5.05;;
29120;SDS011;16191;49.548;8.658;2022-12-05T17:39:09;6.53;;;4.78;;
29120;SDS011;16191;49.548;8.658;2022-12-05T17:41:35;7.13;;;4.60;;
29120;SDS011;16191;49.548;8.658;2022-12-05T17:44:05;8.80;;;5.07;;
29120;SDS011;16191;49.548;8.658;2022-12-05T17:46:32;9.32;;;5.00;;
29120;SDS011;16191;49.548;8.658;2022-12-05T17:48:59;5.97;;;4.32;;
29120;SDS011;16191;49.548;8.658;2022-12-05T17:51:26;6.68;;;4.50;;
29120;SDS011;16191;49.548;8.658;2022-12-05T17:53:53;7.25;;;3.97;;
29120;SDS011;16191;49.548;8.658;2022-12-05T17:56:20;6.53;;;4.50;;
29120;SDS011;16191;49.548;8.658;2022-12-05T17:58:47;10.13;;;4.45;;
29120;SDS011;16191;49.548;8.658;2022-12-05T18:01:14;10.57;;;4.47;;